createdAt,value
2023-03-07T00:22:02.955Z,31.30
2023-03-07T00:23:03.923Z,31.20
2023-03-07T00:24:03.914Z,29.80
2023-03-07T00:25:03.900Z,31.60
2023-03-07T00:26:03.886Z,31.50
2023-03-07T00:27:03.889Z,33.40
2023-03-07T00:28:03.868Z,31.90
2023-03-07T00:29:03.848Z,32.00
2023-03-07T00:30:03.849Z,30.40
2023-03-07T00:31:03.913Z,31.30
2023-03-07T00:32:03.846Z,30.60
2023-03-07T00:33:03.813Z,31.00
2023-03-07T00:34:03.791Z,31.30
2023-03-07T00:35:03.831Z,31.20
2023-03-07T00:36:03.820Z,32.00
2023-03-07T00:37:03.744Z,33.80
2023-03-07T00:38:03.787Z,32.60
2023-03-07T00:39:03.716Z,32.00
2023-03-07T00:40:03.751Z,33.60
2023-03-07T01:02:53.016Z,20.40
2023-03-07T01:03:54.375Z,20.50
2023-03-07T01:04:53.992Z,20.80
2023-03-07T01:05:53.971Z,20.50
2023-03-07T01:06:53.972Z,18.60
2023-03-07T01:07:53.984Z,20.10
2023-03-07T01:08:53.970Z,19.40
2023-03-07T01:09:53.946Z,17.60
2023-03-07T01:10:53.944Z,17.40
2023-03-07T01:11:53.940Z,16.30
2023-03-07T01:12:53.944Z,16.70
2023-03-07T01:13:53.868Z,15.80
2023-03-07T01:14:53.872Z,14.70
2023-03-07T01:15:53.873Z,13.90
2023-03-07T01:16:53.947Z,13.10
2023-03-07T01:17:53.829Z,13.10
2023-03-07T01:18:53.796Z,12.80
2023-03-07T01:19:53.804Z,12.40
2023-03-07T01:20:53.794Z,12.20
2023-03-07T01:21:53.769Z,11.80
2023-03-07T01:22:53.761Z,11.20
2023-03-07T01:23:53.740Z,11.50
2023-03-07T01:24:53.822Z,10.30
2023-03-07T01:25:53.723Z,11.00
2023-03-07T01:26:53.693Z,10.30
2023-03-07T01:27:53.694Z,10.50
2023-03-07T01:28:52.674Z,10.80
2023-03-07T01:29:53.691Z,10.50
2023-03-07T01:30:53.643Z,10.20
2023-03-07T01:31:53.726Z,9.00
2023-03-07T01:32:53.618Z,10.00
2023-03-07T01:33:53.587Z,9.40
2023-03-07T01:34:53.611Z,9.10
2023-03-07T01:35:54.108Z,9.70
2023-03-07T01:36:53.583Z,9.90
2023-03-07T01:43:22.625Z,9.30
2023-03-07T01:44:23.616Z,9.30
2023-03-07T01:45:23.643Z,8.90
2023-03-07T01:46:23.609Z,9.30
2023-03-07T01:47:23.594Z,10.20
2023-03-07T01:48:23.567Z,9.60
2023-03-07T01:49:23.633Z,9.70
2023-03-07T01:50:23.596Z,10.00
2023-03-07T01:51:23.573Z,10.00
2023-03-07T01:52:23.519Z,9.90
2023-03-07T01:53:23.488Z,8.90
2023-03-07T01:54:23.504Z,9.10
2023-03-07T01:55:23.467Z,9.90
2023-03-07T01:56:23.518Z,9.90
2023-03-07T01:57:23.459Z,9.50
2023-03-07T01:58:23.444Z,9.00
2023-03-07T01:59:23.434Z,10.10
2023-03-07T02:00:23.425Z,8.90
2023-03-07T02:01:23.482Z,9.50
2023-03-07T02:02:23.456Z,9.50
2023-03-07T02:03:24.374Z,10.30
2023-03-07T02:04:23.434Z,10.30
2023-03-07T02:05:23.346Z,9.80
2023-03-07T02:06:23.398Z,9.80
2023-03-07T02:07:23.325Z,9.80
2023-03-07T02:08:23.314Z,10.20
2023-03-07T02:09:23.327Z,9.80
2023-03-07T02:10:23.331Z,9.40
2023-03-07T02:11:23.341Z,10.00
2023-03-07T02:12:23.367Z,9.50
2023-03-07T02:13:23.248Z,9.60
2023-03-07T02:14:23.262Z,10.30
2023-03-07T02:15:23.207Z,10.00
2023-03-07T02:16:23.193Z,9.20
2023-03-07T02:17:23.199Z,9.70
2023-03-07T02:18:23.192Z,9.50
2023-03-07T02:19:23.191Z,9.50
2023-03-07T02:20:23.131Z,9.40
2023-03-07T02:21:23.145Z,9.20
2023-03-07T02:22:23.199Z,9.10
2023-03-07T02:23:23.127Z,9.00
2023-03-07T02:24:23.160Z,9.00
2023-03-07T02:25:23.067Z,8.80
2023-03-07T02:26:23.053Z,9.50
2023-03-07T02:27:23.040Z,9.40
2023-03-07T02:28:23.029Z,9.40
2023-03-07T02:29:23.019Z,9.80
2023-03-07T02:30:23.023Z,8.90
2023-03-07T02:31:22.994Z,9.60
2023-03-07T02:32:23.045Z,9.50
2023-03-07T02:33:22.964Z,9.30
2023-03-07T02:34:22.953Z,9.90
2023-03-07T02:35:23.000Z,9.80
2023-03-07T02:36:22.938Z,9.20
2023-03-07T02:37:22.918Z,9.20
2023-03-07T02:38:22.894Z,9.40
2023-03-07T02:39:22.879Z,10.30
2023-03-07T02:40:22.918Z,9.50
2023-03-07T02:41:22.867Z,9.50
2023-03-07T02:42:22.849Z,9.20
2023-03-07T02:43:22.836Z,9.50
2023-03-07T02:44:22.885Z,9.30
2023-03-07T02:45:22.801Z,9.40
2023-03-07T02:46:22.885Z,9.10
2023-03-07T02:47:22.853Z,9.40
2023-03-07T02:48:22.774Z,9.00
2023-03-07T02:49:22.748Z,8.70
2023-03-07T02:50:22.733Z,9.00
2023-03-07T02:51:22.717Z,9.20
2023-03-07T02:52:22.734Z,9.10
2023-03-07T02:53:22.715Z,8.90
2023-03-07T02:54:22.715Z,9.10
2023-03-07T02:55:22.716Z,9.40
2023-03-07T02:56:22.648Z,9.70
2023-03-07T02:57:22.751Z,9.10
2023-03-07T02:58:22.741Z,9.20
2023-03-07T02:59:22.684Z,9.70
2023-03-07T03:02:29.776Z,9.90
2023-03-07T03:03:30.741Z,9.60
2023-03-07T03:04:30.755Z,9.20
2023-03-07T03:13:20.027Z,9.00
2023-03-07T03:14:20.860Z,9.20
2023-03-07T03:15:20.862Z,9.20
2023-03-07T03:16:20.860Z,9.50
2023-03-07T03:17:20.878Z,10.00
2023-03-07T03:18:20.835Z,9.80
2023-03-07T03:19:20.872Z,9.20
2023-03-07T03:20:20.789Z,10.30
2023-03-07T03:21:20.818Z,9.50
2023-03-07T03:22:20.832Z,10.30
2023-03-07T03:23:20.780Z,9.80
2023-03-07T03:24:20.758Z,8.90
2023-03-07T03:25:20.756Z,9.80
2023-03-07T03:26:20.703Z,10.30
2023-03-07T03:27:20.723Z,9.70
2023-03-07T03:28:20.731Z,9.60
2023-03-07T03:29:20.684Z,9.80
2023-03-07T03:30:20.679Z,9.20
2023-03-07T03:31:20.689Z,8.80
2023-03-07T03:32:20.796Z,9.80
2023-03-07T03:33:20.630Z,9.50
2023-03-07T03:34:20.620Z,8.20
2023-03-07T03:35:20.596Z,7.90
2023-03-07T03:36:20.598Z,8.00
2023-03-07T03:37:20.575Z,8.80
2023-03-07T03:38:20.574Z,7.90
2023-03-07T03:39:20.589Z,7.40
2023-03-07T03:40:20.530Z,7.50
2023-03-07T03:41:20.572Z,7.90
2023-03-07T03:42:20.524Z,7.10
2023-03-07T03:43:20.512Z,8.50
2023-03-07T03:44:20.491Z,7.90
2023-03-07T03:45:20.531Z,7.40
2023-03-07T03:46:20.562Z,7.30
2023-03-07T03:47:20.452Z,6.80
2023-03-07T03:48:20.442Z,7.10
2023-03-07T03:49:20.427Z,7.00
2023-03-07T03:50:20.405Z,6.90
2023-03-07T03:51:20.389Z,6.00
2023-03-07T03:52:20.383Z,6.40
2023-03-07T03:53:20.370Z,6.30
2023-03-07T03:54:20.359Z,6.40
2023-03-07T03:55:20.364Z,6.10
2023-03-07T03:56:20.333Z,6.20
2023-03-07T03:57:20.319Z,5.50
2023-03-07T03:58:20.302Z,5.70
2023-03-07T03:59:20.285Z,5.40
2023-03-07T04:00:21.172Z,5.30
2023-03-07T04:01:20.330Z,5.40
2023-03-07T04:02:20.360Z,5.00
2023-03-07T04:03:20.313Z,5.10
2023-03-07T04:04:20.349Z,5.20
2023-03-07T04:05:20.213Z,5.70
2023-03-07T04:06:20.252Z,5.20
2023-03-07T04:07:20.202Z,5.30
2023-03-07T04:08:20.183Z,4.90
2023-03-07T04:09:20.202Z,4.80
2023-03-07T04:10:20.147Z,5.40
2023-03-07T04:11:20.119Z,4.90
2023-03-07T04:12:20.127Z,5.20
2023-03-07T04:13:20.119Z,5.40
2023-03-07T04:14:20.135Z,5.00
2023-03-07T04:15:20.081Z,5.40
2023-03-07T04:16:20.120Z,4.80
2023-03-07T04:17:20.077Z,5.10
2023-03-07T04:18:20.070Z,5.50
2023-03-07T04:19:21.969Z,5.40
2023-03-07T04:20:19.997Z,5.60
2023-03-07T04:21:20.003Z,5.20
2023-03-07T04:22:20.070Z,4.80
2023-03-07T04:23:20.008Z,5.20
2023-03-07T04:24:19.968Z,4.90
2023-03-07T04:25:19.944Z,4.80
2023-03-07T04:26:19.962Z,4.90
2023-03-07T04:27:19.917Z,4.70
2023-03-07T04:28:19.915Z,4.90
2023-03-07T04:29:19.926Z,4.80
2023-03-07T04:30:19.933Z,5.10
2023-03-07T04:31:20.008Z,5.20
2023-03-07T04:32:19.896Z,4.80
2023-03-07T04:33:19.864Z,4.80
2023-03-07T04:34:19.815Z,5.00
2023-03-07T04:35:19.828Z,5.00
2023-03-07T04:36:19.835Z,5.20
2023-03-07T04:37:19.782Z,5.20
2023-03-07T04:38:19.778Z,5.10
2023-03-07T04:39:19.764Z,5.00
2023-03-07T04:40:19.733Z,4.60
2023-03-07T04:41:19.718Z,5.20
2023-03-07T04:42:19.717Z,4.80
2023-03-07T04:43:19.812Z,5.50
2023-03-07T04:44:19.690Z,5.00
2023-03-07T04:45:19.695Z,4.70
2023-03-07T04:46:19.700Z,4.90
2023-03-07T04:47:19.642Z,5.10
2023-03-07T04:48:19.732Z,5.00
2023-03-07T04:49:19.945Z,5.20
2023-03-07T04:50:19.617Z,5.30
2023-03-07T04:51:19.646Z,5.10
2023-03-07T04:52:19.592Z,4.90
2023-03-07T04:53:19.609Z,4.80
2023-03-07T04:54:19.558Z,5.30
2023-03-07T04:55:19.552Z,4.90
2023-03-07T04:56:19.589Z,5.40
2023-03-07T04:57:19.502Z,4.70
2023-03-07T04:58:19.490Z,4.30
2023-03-07T04:59:21.401Z,5.00
2023-03-07T05:00:19.541Z,4.80
2023-03-07T05:01:19.477Z,5.10
2023-03-07T05:02:19.444Z,5.00
2023-03-07T05:03:19.473Z,4.90
2023-03-07T05:04:19.492Z,4.40
2023-03-07T05:05:19.437Z,4.40
2023-03-07T05:06:19.401Z,4.20
2023-03-07T05:07:19.399Z,4.30
2023-03-07T05:08:19.404Z,4.40
2023-03-07T05:09:19.405Z,3.60
2023-03-07T05:10:19.424Z,4.30
2023-03-07T05:11:19.313Z,4.20
2023-03-07T05:12:19.346Z,4.30
2023-03-07T05:13:20.226Z,4.30
2023-03-07T05:14:19.319Z,5.20
2023-03-07T05:15:19.281Z,5.30
2023-03-07T05:16:19.367Z,4.90
2023-03-07T05:17:19.240Z,5.80
2023-03-07T05:18:19.244Z,5.40
2023-03-07T05:19:19.317Z,5.70
2023-03-07T05:20:19.232Z,6.30
2023-03-07T05:21:19.225Z,6.00
2023-03-07T05:22:19.199Z,5.70
2023-03-07T05:23:19.221Z,6.20
2023-03-07T05:24:19.170Z,6.10
2023-03-07T05:25:19.255Z,7.20
2023-03-07T05:26:19.162Z,6.20
2023-03-07T05:27:19.135Z,6.50
2023-03-07T05:28:19.136Z,6.40
2023-03-07T05:29:19.119Z,6.50
2023-03-07T05:30:19.840Z,6.70
2023-03-07T05:31:19.219Z,5.70
2023-03-07T05:32:19.057Z,6.20
2023-03-07T05:33:19.028Z,6.20
2023-03-07T05:34:19.016Z,5.80
2023-03-07T05:35:19.015Z,6.00
2023-03-07T05:36:19.036Z,5.80
2023-03-07T05:37:18.979Z,6.00
2023-03-07T05:38:19.035Z,5.80
2023-03-07T05:39:18.955Z,6.10
2023-03-07T05:40:18.941Z,6.20
2023-03-07T05:41:19.002Z,6.40
2023-03-07T05:42:18.975Z,6.70
2023-03-07T05:43:18.895Z,7.00
2023-03-07T05:44:18.904Z,6.80
2023-03-07T05:45:18.882Z,6.50
2023-03-07T05:46:18.958Z,7.00
2023-03-07T05:47:18.946Z,6.70
2023-03-07T05:48:18.913Z,6.50
2023-03-07T05:49:18.849Z,7.70
2023-03-07T05:50:18.851Z,7.60
2023-03-07T05:51:18.822Z,7.10
2023-03-07T05:52:18.862Z,7.10
2023-03-07T05:53:18.776Z,7.20
2023-03-07T05:54:18.792Z,6.80
2023-03-07T05:55:18.757Z,7.10
2023-03-07T05:56:18.728Z,7.00
2023-03-07T05:57:18.713Z,7.10
2023-03-07T05:58:18.761Z,7.10
2023-03-07T05:59:18.708Z,7.40
2023-03-07T06:00:18.684Z,7.30
2023-03-07T06:01:18.827Z,7.70
2023-03-07T06:02:18.962Z,7.30
2023-03-07T06:03:18.655Z,6.80
2023-03-07T06:04:18.715Z,7.30
2023-03-07T06:05:18.616Z,7.10
2023-03-07T06:06:18.697Z,6.40
2023-03-07T06:07:18.677Z,6.40
2023-03-07T06:08:18.567Z,6.50
2023-03-07T06:09:18.683Z,7.00
2023-03-07T06:10:18.568Z,6.10
2023-03-07T06:11:18.586Z,6.80
2023-03-07T06:12:18.531Z,7.00
2023-03-07T06:13:18.726Z,6.70
2023-03-07T06:14:18.589Z,6.80
2023-03-07T06:15:18.514Z,6.40
2023-03-07T06:16:18.696Z,6.50
2023-03-07T06:17:18.465Z,6.60
2023-03-07T06:18:18.805Z,6.50
2023-03-07T06:19:18.497Z,6.30
2023-03-07T06:20:18.469Z,6.30
2023-03-07T06:21:18.403Z,7.00
2023-03-07T06:22:18.510Z,6.70
2023-03-07T06:23:18.370Z,6.60
2023-03-07T06:24:18.388Z,6.70
2023-03-07T06:25:18.383Z,6.20
2023-03-07T06:26:18.364Z,7.00
2023-03-07T06:27:18.339Z,6.10
2023-03-07T06:28:18.344Z,6.20
2023-03-07T06:29:18.294Z,6.20
2023-03-07T06:30:18.412Z,6.40
2023-03-07T06:31:18.349Z,6.50
2023-03-07T06:32:18.303Z,5.80
2023-03-07T06:33:18.363Z,6.00
2023-03-07T06:34:18.232Z,5.70
2023-03-07T06:35:18.234Z,6.30
2023-03-07T06:36:18.250Z,5.80
2023-03-07T06:37:18.240Z,6.00
2023-03-07T06:38:18.764Z,5.80
2023-03-07T06:39:18.171Z,6.20
2023-03-07T06:40:19.433Z,6.00
2023-03-07T06:41:18.161Z,6.10
2023-03-07T06:42:18.411Z,6.80
2023-03-07T06:43:18.142Z,6.20
2023-03-07T06:44:18.121Z,6.00
2023-03-07T06:45:18.104Z,5.90
2023-03-07T06:46:18.089Z,6.80
2023-03-07T06:47:18.056Z,6.40
2023-03-07T06:48:18.250Z,6.50
2023-03-07T06:49:18.128Z,6.20
2023-03-07T06:50:23.791Z,6.00
2023-03-07T06:51:18.063Z,6.30
2023-03-07T06:52:18.032Z,6.30
2023-03-07T06:53:18.064Z,6.20
2023-03-07T06:54:18.075Z,6.00
2023-03-07T06:55:18.010Z,6.20
2023-03-07T06:56:17.953Z,5.90
2023-03-07T06:57:17.979Z,6.30
2023-03-07T06:58:17.918Z,6.00
2023-03-07T06:59:18.067Z,5.80
2023-03-07T07:00:18.915Z,5.20
2023-03-07T07:01:18.112Z,6.30
2023-03-07T07:02:17.993Z,5.70
2023-03-07T07:03:17.994Z,5.70
2023-03-07T07:04:17.851Z,5.30
2023-03-07T07:05:17.851Z,5.10
2023-03-07T07:06:17.832Z,5.00
2023-03-07T07:07:17.857Z,5.20
2023-03-07T07:08:17.869Z,5.00
2023-03-07T07:09:17.797Z,5.00
2023-03-07T07:10:17.867Z,5.10
2023-03-07T07:11:17.779Z,5.50
2023-03-07T07:12:17.760Z,5.40
2023-03-07T07:13:17.781Z,5.60
2023-03-07T07:14:17.698Z,5.00
2023-03-07T07:15:17.706Z,5.00
2023-03-07T07:16:17.719Z,5.10
2023-03-07T07:17:17.728Z,5.00
2023-03-07T07:18:17.670Z,5.40
2023-03-07T07:19:17.694Z,5.10
2023-03-07T07:20:17.653Z,5.20
2023-03-07T07:21:17.668Z,4.60
2023-03-07T07:22:17.612Z,5.00
2023-03-07T07:23:17.599Z,4.80
2023-03-07T07:24:17.574Z,5.00
2023-03-07T07:25:17.619Z,5.10
2023-03-07T07:26:17.656Z,4.90
2023-03-07T07:27:17.830Z,4.60
2023-03-07T07:28:17.527Z,4.50
2023-03-07T07:29:17.518Z,4.20
2023-03-07T07:30:17.519Z,4.20
2023-03-07T07:31:17.522Z,4.10
2023-03-07T07:32:17.571Z,4.20
2023-03-07T07:33:17.632Z,4.20
2023-03-07T07:34:17.463Z,3.80
2023-03-07T07:35:17.427Z,4.10
2023-03-07T07:36:17.457Z,4.10
2023-03-07T07:37:17.450Z,4.30
2023-03-07T07:38:17.435Z,3.80
2023-03-07T07:39:17.386Z,3.80
2023-03-07T07:40:17.366Z,3.60
2023-03-07T07:41:17.412Z,3.60
2023-03-07T07:42:17.413Z,3.70
2023-03-07T07:43:17.323Z,3.60
2023-03-07T07:44:17.327Z,3.40
2023-03-07T07:45:17.300Z,3.50
2023-03-07T07:46:17.392Z,3.60
2023-03-07T07:47:17.340Z,3.60
2023-03-07T07:48:17.271Z,3.40
2023-03-07T07:49:18.691Z,3.30
2023-03-07T07:50:17.248Z,3.30
2023-03-07T07:51:17.295Z,3.60
2023-03-07T07:52:17.196Z,3.60
2023-03-07T07:53:17.214Z,3.40
2023-03-07T07:54:17.175Z,3.50
2023-03-07T07:55:17.153Z,3.60
2023-03-07T07:56:17.167Z,3.50
2023-03-07T07:57:17.128Z,4.00
2023-03-07T07:58:17.190Z,3.70
2023-03-07T07:59:17.096Z,3.80
2023-03-07T08:00:17.134Z,3.80
2023-03-07T08:01:17.125Z,4.10
2023-03-07T08:02:17.122Z,4.00
2023-03-07T08:03:17.131Z,3.90
2023-03-07T08:04:17.073Z,3.50
2023-03-07T08:05:17.028Z,4.20
2023-03-07T08:06:18.483Z,4.40
2023-03-07T08:07:17.074Z,3.90
2023-03-07T08:08:17.012Z,3.80
2023-03-07T08:09:17.087Z,4.00
2023-03-07T08:10:16.983Z,4.30
2023-03-07T08:11:16.956Z,4.80
2023-03-07T08:12:16.954Z,4.10
2023-03-07T08:13:16.926Z,4.70
2023-03-07T08:14:39.108Z,4.30
2023-03-07T08:15:16.899Z,3.70
2023-03-07T08:16:16.995Z,4.00
2023-03-07T08:17:35.475Z,4.10
2023-03-07T08:18:16.887Z,3.60
2023-03-07T08:19:16.915Z,3.20
2023-03-07T08:20:40.008Z,3.30
2023-03-07T08:21:16.822Z,4.00
2023-03-07T08:22:28.561Z,3.30
2023-03-07T08:23:16.816Z,2.70
2023-03-07T08:25:32.249Z,2.60
2023-03-07T08:26:33.013Z,2.30
2023-03-07T08:31:03.770Z,2.80
2023-03-07T08:32:03.091Z,2.70
2023-03-07T15:01:09.664Z,2.60
2023-03-07T15:02:10.650Z,2.80
2023-03-07T15:03:11.702Z,3.40
2023-03-07T15:04:10.636Z,3.20
2023-03-07T15:05:10.611Z,3.70
2023-03-07T15:06:10.587Z,3.00
2023-03-07T15:07:10.574Z,3.60
2023-03-07T15:08:10.573Z,3.80
2023-03-07T15:09:10.570Z,3.60
2023-03-07T15:10:10.574Z,3.80
2023-03-07T15:11:35.080Z,3.30
2023-03-07T15:12:36.089Z,3.40
2023-03-07T15:13:36.083Z,3.60
2023-03-07T15:14:36.062Z,4.10
2023-03-07T15:15:36.038Z,4.10
2023-03-07T15:16:36.160Z,4.10
2023-03-07T15:17:36.015Z,3.50
2023-03-07T15:18:36.901Z,3.50
2023-03-07T15:19:35.988Z,3.90
2023-03-07T15:20:36.004Z,4.00
2023-03-07T15:21:35.996Z,4.60
2023-03-07T15:22:57.144Z,4.90
2023-03-07T15:23:35.977Z,4.60
2023-03-07T15:24:35.942Z,4.60
2023-03-07T15:25:35.996Z,4.90
2023-03-07T15:26:35.900Z,5.40
2023-03-07T15:27:35.984Z,4.80
2023-03-07T15:29:50.433Z,4.30
2023-03-07T15:30:53.405Z,4.30
2023-03-07T15:31:51.300Z,4.60
2023-03-07T15:32:51.227Z,5.40
2023-03-07T15:33:51.224Z,5.10
2023-03-07T15:34:51.266Z,5.40
2023-03-07T15:35:51.256Z,5.00
2023-03-07T15:36:52.028Z,4.30
2023-03-07T15:37:52.472Z,5.40
2023-03-07T15:38:51.188Z,4.50
2023-03-07T15:39:51.249Z,4.40
2023-03-07T15:40:51.185Z,4.20
2023-03-07T15:41:52.274Z,3.60
2023-03-07T15:43:15.976Z,3.40
2023-03-07T15:43:51.102Z,2.80
2023-03-07T15:44:51.124Z,2.90
2023-03-07T15:45:51.075Z,2.60
2023-03-07T15:46:51.065Z,2.80
2023-03-07T15:47:51.050Z,2.70
2023-03-07T15:48:51.043Z,2.30
2023-03-07T15:49:51.124Z,2.30
2023-03-07T15:50:51.000Z,1.90
2023-03-07T15:51:50.982Z,2.30
2023-03-07T15:52:50.974Z,2.20
2023-03-07T15:53:50.987Z,2.80
2023-03-07T15:54:50.982Z,2.80
2023-03-07T15:55:50.935Z,2.40
2023-03-07T15:56:50.940Z,2.50
2023-03-07T15:58:11.962Z,2.80
2023-03-07T15:58:50.911Z,3.00
2023-03-07T15:59:51.011Z,3.10
2023-03-07T16:00:50.891Z,2.80
2023-03-07T16:01:51.185Z,2.60
2023-03-07T16:02:50.981Z,2.70
2023-03-07T16:06:43.318Z,1.90
2023-03-07T16:07:40.884Z,2.10
2023-03-07T16:08:40.900Z,2.20
2023-03-07T16:09:40.819Z,2.40
2023-03-07T16:10:40.924Z,2.90
2023-03-07T16:11:42.065Z,2.70
2023-03-07T16:12:40.776Z,2.80
2023-03-07T16:13:40.766Z,2.80
2023-03-07T16:14:40.763Z,2.50
2023-03-07T16:15:40.771Z,2.20
2023-03-07T16:17:04.462Z,2.20
2023-03-07T16:17:40.901Z,2.60
2023-03-07T16:18:40.718Z,2.50
2023-03-07T16:19:42.934Z,2.20
2023-03-07T16:20:40.680Z,2.40
2023-03-07T16:21:40.706Z,2.20
2023-03-07T16:22:41.513Z,2.30
2023-03-07T16:23:40.641Z,2.00
2023-03-07T16:24:40.643Z,1.90
2023-03-07T16:25:40.654Z,2.00
2023-03-07T16:26:40.609Z,2.40
2023-03-07T16:27:40.589Z,2.00
2023-03-07T16:28:41.818Z,1.90
2023-03-07T16:29:40.636Z,2.10
2023-03-07T16:30:40.539Z,1.40
2023-03-07T16:31:40.636Z,1.80
2023-03-07T16:32:40.609Z,1.70
2023-03-07T16:33:40.517Z,1.40
2023-03-07T16:34:40.730Z,1.60
2023-03-07T16:35:59.955Z,1.50
2023-03-07T16:36:40.434Z,1.60
2023-03-07T16:37:40.687Z,1.70
2023-03-07T16:38:40.417Z,1.70
2023-03-07T16:39:40.451Z,2.00
2023-03-07T16:40:40.423Z,1.60
2023-03-07T16:41:40.442Z,1.70
2023-03-07T16:42:40.414Z,1.80
2023-03-07T16:43:40.356Z,2.20
2023-03-07T16:44:40.357Z,2.40
2023-03-07T16:45:40.403Z,2.50
2023-03-07T16:46:40.469Z,3.10
2023-03-07T16:47:40.309Z,3.50
2023-03-07T16:48:40.297Z,2.90
2023-03-07T16:49:40.310Z,2.30
2023-03-07T16:50:40.304Z,2.90
2023-03-07T16:51:40.251Z,2.80
2023-03-07T16:52:40.235Z,2.40
2023-03-07T16:53:40.235Z,2.20
2023-03-07T16:54:40.218Z,1.80
2023-03-07T16:55:40.914Z,1.80
2023-03-07T16:56:40.250Z,2.00
2023-03-07T16:57:40.194Z,1.60
2023-03-07T16:58:40.149Z,1.70
2023-03-07T16:59:40.164Z,2.20
2023-03-07T17:00:40.162Z,2.30
2023-03-07T17:01:40.176Z,2.30
2023-03-07T17:02:40.199Z,1.60
2023-03-07T17:03:40.088Z,2.00
2023-03-07T17:04:40.086Z,1.90
2023-03-07T17:05:40.084Z,2.20
2023-03-07T17:06:40.049Z,1.90
2023-03-07T17:07:40.045Z,1.90
2023-03-07T17:08:40.026Z,1.70
2023-03-07T17:09:40.021Z,1.60
2023-03-07T17:10:40.011Z,1.50
2023-03-07T17:11:40.005Z,2.00
2023-03-07T17:12:40.024Z,1.70
2023-03-07T17:13:39.967Z,1.80
2023-03-07T17:14:39.964Z,2.40
2023-03-07T17:15:39.960Z,3.10
2023-03-07T17:16:39.917Z,2.10
2023-03-07T17:17:39.963Z,1.70
2023-03-07T17:18:39.892Z,2.30
2023-03-07T17:19:39.880Z,1.70
2023-03-07T17:20:39.887Z,1.60
2023-03-07T17:21:39.892Z,1.70
2023-03-07T17:22:39.862Z,2.00
2023-03-07T17:23:39.843Z,1.70
2023-03-07T17:24:39.830Z,1.70
2023-03-07T17:25:40.090Z,1.80
2023-03-07T17:26:39.870Z,1.80
2023-03-07T17:27:39.782Z,1.90
2023-03-07T17:29:55.318Z,2.50
2023-03-07T17:30:54.053Z,2.80
2023-03-07T17:31:53.987Z,3.30
2023-03-07T17:32:53.988Z,3.20
2023-03-07T17:33:54.020Z,2.70
2023-03-07T17:35:14.995Z,2.00
2023-03-07T17:35:53.968Z,2.40
2023-03-07T17:36:54.031Z,2.60
2023-03-07T17:37:53.971Z,2.30
2023-03-07T17:38:53.910Z,2.30
2023-03-07T17:39:53.942Z,2.10
2023-03-07T17:40:53.885Z,2.30
2023-03-07T17:41:53.873Z,2.00
2023-03-07T17:43:16.057Z,2.30
2023-03-07T17:43:53.851Z,2.50
2023-03-07T17:46:06.494Z,2.60
2023-03-07T17:47:07.442Z,2.30
2023-03-07T17:48:07.440Z,2.70
2023-03-07T17:49:07.429Z,2.80
2023-03-07T17:50:07.438Z,2.40
2023-03-07T17:51:07.390Z,2.50
2023-03-07T17:52:07.431Z,2.00
2023-03-07T17:53:07.361Z,2.30
2023-03-07T17:54:07.375Z,2.40
2023-03-07T17:55:09.328Z,2.10
2023-03-07T17:56:07.341Z,2.50
2023-03-07T17:57:07.328Z,2.30
2023-03-07T17:58:07.408Z,2.30
2023-03-07T17:59:07.333Z,2.50
2023-03-07T18:00:07.271Z,2.20
2023-03-07T18:01:07.273Z,2.40
2023-03-07T18:02:07.250Z,2.40
2023-03-07T18:03:07.405Z,2.40
2023-03-07T18:04:07.224Z,2.20
2023-03-07T18:05:07.236Z,2.30
2023-03-07T18:06:07.190Z,2.50
2023-03-07T18:07:07.460Z,3.50
2023-03-07T18:08:07.157Z,2.70
2023-03-07T18:09:09.289Z,15.30
2023-03-07T18:10:08.789Z,6.00
2023-03-07T18:11:07.134Z,7.90
2023-03-07T18:12:07.294Z,43.00
2023-03-07T18:13:09.377Z,17.50
2023-03-07T18:14:07.083Z,7.20
2023-03-07T18:15:07.101Z,4.70
2023-03-07T18:16:07.160Z,7.10
2023-03-07T18:17:07.059Z,4.10
2023-03-07T18:18:07.043Z,6.90
2023-03-07T18:19:14.245Z,5.10
2023-03-07T18:20:07.005Z,6.50
2023-03-07T18:21:08.163Z,4.40
2023-03-07T18:22:06.992Z,4.00
2023-03-07T18:23:07.074Z,5.20
2023-03-07T18:24:06.965Z,55.80
2023-03-07T18:25:07.013Z,9.70
2023-03-07T18:26:06.924Z,11.60
2023-03-07T18:27:06.926Z,5.80
2023-03-07T18:28:06.901Z,5.10
2023-03-07T18:29:06.880Z,5.60
2023-03-07T18:30:06.902Z,7.20
2023-03-07T18:31:06.920Z,6.80
2023-03-07T18:32:06.934Z,7.30
2023-03-07T18:33:06.858Z,6.60
2023-03-07T18:34:06.818Z,6.10
2023-03-07T18:35:06.818Z,9.50
2023-03-07T18:36:06.853Z,8.10
2023-03-07T18:37:06.775Z,7.40
2023-03-07T18:38:06.827Z,5.90
2023-03-07T18:39:06.763Z,6.10
2023-03-07T18:40:06.746Z,6.70
2023-03-07T18:41:06.745Z,6.10
2023-03-07T18:42:06.710Z,6.30
2023-03-07T18:43:06.773Z,5.90
2023-03-07T18:44:06.692Z,6.40
2023-03-07T18:45:06.692Z,5.60
2023-03-07T18:46:06.701Z,6.10
2023-03-07T18:47:06.665Z,6.10
2023-03-07T18:48:06.644Z,5.60
2023-03-07T18:49:06.713Z,6.10
2023-03-07T18:50:06.591Z,6.70
2023-03-07T18:51:06.599Z,6.10
2023-03-07T18:52:06.613Z,6.20
2023-03-07T18:53:06.593Z,6.70
2023-03-07T18:54:06.599Z,6.40
2023-03-07T18:55:06.547Z,6.90
2023-03-07T18:56:06.517Z,6.80
2023-03-07T18:57:06.556Z,7.50
2023-03-07T18:58:06.535Z,7.90
2023-03-07T18:59:06.492Z,7.90
2023-03-07T19:00:06.467Z,7.60
2023-03-07T19:01:07.432Z,6.80
2023-03-07T19:02:06.525Z,7.20
2023-03-07T19:03:06.449Z,6.60
2023-03-07T19:04:06.445Z,7.60
2023-03-07T19:05:06.414Z,6.90
2023-03-07T19:06:06.430Z,6.70
2023-03-07T19:07:06.414Z,6.50
2023-03-07T19:08:06.384Z,6.20
2023-03-07T19:09:06.348Z,5.40
2023-03-07T19:10:06.337Z,5.00
2023-03-07T19:11:06.326Z,4.50
2023-03-07T19:12:06.357Z,4.60
2023-03-07T19:13:06.324Z,4.90
2023-03-07T19:14:06.288Z,4.00
2023-03-07T19:15:06.294Z,4.70
2023-03-07T19:16:06.313Z,4.40
2023-03-07T19:17:06.290Z,5.80
2023-03-07T19:18:06.260Z,5.00
2023-03-07T19:19:06.228Z,4.80
2023-03-07T19:20:06.195Z,5.20
2023-03-07T19:21:06.199Z,4.90
2023-03-07T19:22:06.175Z,5.10
2023-03-07T19:23:06.197Z,4.90
2023-03-07T19:24:06.176Z,5.00
2023-03-07T19:25:06.231Z,4.90
2023-03-07T19:26:06.153Z,4.70
2023-03-07T19:27:06.123Z,4.60
2023-03-07T19:28:06.128Z,4.90
2023-03-07T19:29:06.152Z,4.90
2023-03-07T19:30:06.096Z,4.80
2023-03-07T19:31:06.093Z,5.10
2023-03-07T19:32:06.281Z,5.10
2023-03-07T19:33:06.032Z,6.70
2023-03-07T19:34:06.024Z,6.50
2023-03-07T19:35:06.015Z,6.60
2023-03-07T19:36:06.085Z,7.30
2023-03-07T19:37:05.996Z,6.00
2023-03-07T19:38:06.007Z,5.60
2023-03-07T19:39:05.974Z,5.70
2023-03-07T21:54:46.994Z,13.30
2023-03-07T21:55:47.953Z,12.90
2023-03-07T21:56:47.950Z,12.70
2023-03-07T21:57:47.925Z,12.80
2023-03-07T21:58:47.961Z,12.50
2023-03-07T21:59:47.944Z,12.80
2023-03-07T22:00:47.938Z,13.00
2023-03-07T22:01:47.918Z,11.80
2023-03-07T22:02:47.865Z,12.40
2023-03-07T22:03:47.961Z,12.40
2023-03-07T22:04:47.867Z,11.60
2023-03-07T22:05:47.821Z,12.10
2023-03-07T22:06:47.823Z,12.10
2023-03-07T22:07:47.803Z,12.20
2023-03-07T22:08:47.948Z,11.30
2023-03-07T22:09:47.780Z,12.40
2023-03-07T22:10:47.805Z,11.80
2023-03-07T22:11:47.801Z,12.30
2023-03-07T22:12:47.754Z,11.90
2023-03-07T22:13:47.724Z,12.50
2023-03-07T22:14:47.735Z,11.90
2023-03-07T22:15:47.709Z,13.00
2023-03-07T22:16:47.756Z,12.40
2023-03-07T22:17:47.665Z,12.40
2023-03-07T22:18:47.657Z,12.40
2023-03-07T22:19:47.633Z,10.90
2023-03-07T22:20:47.624Z,11.30
2023-03-07T22:21:47.598Z,11.50
2023-03-07T22:22:47.606Z,11.10
2023-03-07T22:27:56.641Z,11.20
2023-03-07T22:28:57.651Z,11.10
2023-03-07T22:29:57.624Z,11.50
2023-03-07T22:30:57.600Z,11.30
2023-03-07T22:31:57.657Z,10.40
2023-03-07T22:32:57.573Z,10.60
2023-03-07T22:33:57.566Z,10.10
2023-03-07T22:34:57.546Z,10.10
2023-03-07T22:35:57.657Z,10.30
2023-03-07T22:36:57.538Z,10.40
2023-03-07T22:37:57.516Z,9.90
2023-03-07T22:38:57.498Z,10.60
2023-03-07T22:39:57.485Z,9.50
2023-03-07T22:40:57.468Z,9.40
2023-03-07T22:41:57.447Z,9.60
2023-03-07T22:42:57.450Z,9.40
2023-03-07T22:43:57.426Z,8.90
2023-03-07T22:44:57.410Z,9.00
2023-03-07T22:45:57.459Z,9.40
2023-03-07T22:46:57.379Z,9.80
2023-03-07T22:47:57.455Z,9.40
2023-03-07T22:48:57.379Z,8.70
2023-03-07T22:49:57.374Z,8.70
2023-03-07T22:50:57.334Z,9.20
2023-03-07T22:51:57.326Z,9.20
2023-03-07T22:52:57.317Z,8.90
2023-03-07T22:53:57.414Z,8.70
2023-03-07T22:54:57.300Z,9.30
2023-03-07T22:55:57.280Z,9.80
2023-03-07T22:56:57.260Z,9.90
2023-03-07T22:57:57.240Z,9.20
2023-03-07T22:58:57.247Z,9.70
2023-03-07T22:59:57.210Z,9.60
2023-03-07T23:00:57.201Z,9.90
2023-03-07T23:01:57.179Z,9.40
2023-03-07T23:02:57.168Z,10.30
2023-03-07T23:03:57.160Z,10.00
2023-03-07T23:04:57.144Z,9.20
2023-03-07T23:05:57.145Z,10.10
2023-03-07T23:06:57.108Z,10.20
2023-03-07T23:07:57.095Z,10.20
2023-03-07T23:08:57.084Z,10.00
2023-03-07T23:09:57.072Z,10.70
2023-03-07T23:10:57.058Z,10.40
2023-03-07T23:11:57.043Z,10.70